Time,TemperatureF,DewpointF,PressureIn,WindDirection,WindDirectionDegrees,WindSpeedMPH,WindSpeedGustMPH,Humidity,HourlyPrecipIn,Conditions,Clouds,dailyrainin,SoftwareType,DateUTC
2013-08-05 00:01:00,66.6,42.1,29.89,SW,225,2.5,2.5,41,0.00,,,0.00,WUHU216HW,2013-08-05 06:01:00,
2013-08-05 00:12:00,66.2,41.9,29.89,WSW,248,0.4,2.5,41,0.00,,,0.00,WUHU216HW,2013-08-05 06:12:00,
2013-08-05 00:22:00,65.7,41.3,29.89,SE,135,0.0,0.7,41,0.00,,,0.00,WUHU216HW,2013-08-05 06:22:00,
2013-08-05 00:32:00,65.2,42.0,29.89,South,180,0.4,2.5,43,0.00,,,0.00,WUHU216HW,2013-08-05 06:32:00,
2013-08-05 00:42:00,64.6,42.0,29.89,NE,45,0.4,2.7,44,0.00,,,0.00,WUHU216HW,2013-08-05 06:42:00,
2013-08-05 00:52:00,64.1,42.1,29.89,South,180,3.1,3.4,45,0.00,,,0.00,WUHU216HW,2013-08-05 06:52:00,
2013-08-05 01:02:00,63.7,41.9,29.89,SE,135,1.1,1.8,45,0.00,,,0.00,WUHU216HW,2013-08-05 07:02:00,
2013-08-05 01:12:00,63.4,42.1,29.89,NNE,23,0.0,0.4,46,0.00,,,0.00,WUHU216HW,2013-08-05 07:12:00,
2013-08-05 01:22:00,62.8,42.2,29.89,SSE,158,0.0,0.4,47,0.00,,,0.00,WUHU216HW,2013-08-05 07:22:00,
2013-08-05 01:32:00,62.3,41.7,29.89,SW,225,0.0,0.0,47,0.00,,,0.00,WUHU216HW,2013-08-05 07:32:00,
2013-08-05 01:42:00,61.7,41.8,29.89,SE,135,0.9,1.1,48,0.00,,,0.00,WUHU216HW,2013-08-05 07:42:00,
2013-08-05 01:52:00,61.2,41.3,29.89,SSW,203,0.4,0.7,48,0.00,,,0.00,WUHU216HW,2013-08-05 07:52:00,
2013-08-05 02:02:00,60.8,41.6,29.89,South,180,2.0,2.7,49,0.00,,,0.00,WUHU216HW,2013-08-05 08:02:00,
2013-08-05 02:12:00,60.7,41.4,29.88,South,180,1.6,2.9,49,0.00,,,0.00,WUHU216HW,2013-08-05 08:12:00,
2013-08-05 02:22:00,60.1,41.5,29.88,SSW,203,5.4,6.7,50,0.00,,,0.00,WUHU216HW,2013-08-05 08:22:00,
2013-08-05 02:32:00,59.9,41.8,29.88,ESE,113,2.7,6.0,51,0.00,,,0.00,WUHU216HW,2013-08-05 08:32:00,
2013-08-05 02:42:00,59.8,41.6,29.88,SSE,158,5.8,8.1,51,0.00,,,0.00,WUHU216HW,2013-08-05 08:42:00,
2013-08-05 02:52:00,59.6,42.0,29.88,South,180,3.4,5.6,52,0.00,,,0.00,WUHU216HW,2013-08-05 08:52:00,
2013-08-05 03:02:00,59.4,41.8,29.88,South,180,3.1,5.4,52,0.00,,,0.00,WUHU216HW,2013-08-05 09:02:00,
2013-08-05 03:12:00,59.0,42.0,29.88,SSE,158,5.4,7.4,53,0.00,,,0.00,WUHU216HW,2013-08-05 09:12:00,
2013-08-05 03:22:00,58.7,42.0,29.88,ESE,113,5.8,5.8,54,0.00,,,0.00,WUHU216HW,2013-08-05 09:22:00,
2013-08-05 03:32:00,58.1,42.0,29.88,SSE,158,4.5,5.6,55,0.00,,,0.00,WUHU216HW,2013-08-05 09:32:00,
2013-08-05 03:43:00,57.6,41.6,29.88,ESE,113,5.4,6.5,55,0.00,,,0.00,WUHU216HW,2013-08-05 09:43:00,
2013-08-05 03:53:00,57.4,41.9,29.88,South,180,2.7,4.7,56,0.00,,,0.00,WUHU216HW,2013-08-05 09:53:00,
2013-08-05 04:03:00,57.2,41.7,29.88,SSW,203,2.9,5.1,56,0.00,,,0.00,WUHU216HW,2013-08-05 10:03:00,
2013-08-05 04:13:00,57.1,41.5,29.88,NNE,23,0.9,6.5,56,0.00,,,0.00,WUHU216HW,2013-08-05 10:13:00,
2013-08-05 04:22:00,56.9,41.3,29.88,SSW,203,3.6,3.6,56,0.00,,,0.00,WUHU216HW,2013-08-05 10:22:00,
2013-08-05 04:33:00,56.7,41.6,29.88,SE,135,2.2,4.0,57,0.00,,,0.00,WUHU216HW,2013-08-05 10:33:00,
2013-08-05 04:43:00,56.5,41.4,29.88,SSE,158,2.5,3.6,57,0.00,,,0.00,WUHU216HW,2013-08-05 10:43:00,
2013-08-05 04:53:00,56.5,42.0,29.89,ESE,113,0.9,2.0,58,0.00,,,0.00,WUHU216HW,2013-08-05 10:53:00,
2013-08-05 05:03:00,56.3,41.8,29.89,East,90,0.2,3.1,58,0.00,,,0.00,WUHU216HW,2013-08-05 11:03:00,
2013-08-05 05:13:00,56.0,41.4,29.89,SSW,203,0.9,1.1,58,0.00,,,0.00,WUHU216HW,2013-08-05 11:13:00,
2013-08-05 05:23:00,55.8,41.2,29.89,South,180,2.7,2.7,58,0.00,,,0.00,WUHU216HW,2013-08-05 11:23:00,
2013-08-05 05:34:00,55.4,41.3,29.89,South,180,2.2,2.2,59,0.00,,,0.00,WUHU216HW,2013-08-05 11:34:00,
2013-08-05 05:44:00,55.3,41.6,29.89,SSE,158,0.0,1.6,60,0.00,,,0.00,WUHU216HW,2013-08-05 11:44:00,
2013-08-05 05:54:00,55.1,41.4,29.89,NE,45,0.4,0.4,60,0.00,,,0.00,WUHU216HW,2013-08-05 11:54:00,
2013-08-05 06:04:00,54.7,41.5,29.89,South,180,0.0,0.2,61,0.00,,,0.00,WUHU216HW,2013-08-05 12:04:00,
2013-08-05 06:14:00,54.4,41.6,29.89,West,270,0.4,0.7,62,0.00,,,0.00,WUHU216HW,2013-08-05 12:14:00,
2013-08-05 06:24:00,54.0,41.2,29.90,NNW,338,1.1,1.3,62,0.00,,,0.00,WUHU216HW,2013-08-05 12:24:00,
2013-08-05 06:35:00,53.8,41.5,29.90,ESE,113,0.4,0.4,63,0.00,,,0.00,WUHU216HW,2013-08-05 12:35:00,
2013-08-05 06:45:00,53.8,41.9,29.90,SE,135,0.0,0.4,64,0.00,,,0.00,WUHU216HW,2013-08-05 12:45:00,
2013-08-05 06:55:00,54.0,42.5,29.90,SE,135,0.9,1.1,65,0.00,,,0.00,WUHU216HW,2013-08-05 12:55:00,
2013-08-05 07:05:00,54.4,42.4,29.90,SSW,203,0.0,0.0,64,0.00,,,0.00,WUHU216HW,2013-08-05 13:05:00,
2013-08-05 07:15:00,54.9,42.9,29.90,SSE,158,0.0,0.0,64,0.00,,,0.00,WUHU216HW,2013-08-05 13:15:00,
2013-08-05 07:25:00,55.4,43.4,29.90,ENE,68,1.1,1.1,64,0.00,,,0.00,WUHU216HW,2013-08-05 13:25:00,
2013-08-05 07:36:00,56.2,44.1,29.90,NE,45,0.7,1.3,64,0.00,,,0.00,WUHU216HW,2013-08-05 13:36:00,
2013-08-05 07:45:00,57.1,45.4,29.90,East,90,0.7,1.3,65,0.00,,,0.00,WUHU216HW,2013-08-05 13:45:00,
2013-08-05 07:55:00,58.0,45.8,29.91,NNW,338,0.4,1.3,64,0.00,,,0.00,WUHU216HW,2013-08-05 13:55:00,
2013-08-05 08:06:00,58.1,45.6,29.91,NW,315,0.2,1.6,63,0.00,,,0.00,WUHU216HW,2013-08-05 14:06:00,
2013-08-05 08:16:00,58.9,46.3,29.90,North,0,0.0,0.9,63,0.00,,,0.00,WUHU216HW,2013-08-05 14:16:00,
2013-08-05 08:26:00,59.0,46.0,29.90,North,0,1.8,3.4,62,0.00,,,0.00,WUHU216HW,2013-08-05 14:26:00,
2013-08-05 08:36:00,59.0,46.0,29.90,WNW,293,1.1,2.2,62,0.00,,,0.00,WUHU216HW,2013-08-05 14:36:00,
2013-08-05 08:47:00,59.0,46.0,29.90,North,0,0.7,1.8,62,0.00,,,0.00,WUHU216HW,2013-08-05 14:47:00,
2013-08-05 08:57:00,59.0,46.0,29.91,WNW,293,0.4,1.8,62,0.00,,,0.00,WUHU216HW,2013-08-05 14:57:00,
2013-08-05 09:06:00,59.0,46.0,29.91,NNE,23,0.9,0.9,62,0.00,,,0.00,WUHU216HW,2013-08-05 15:06:00,
2013-08-05 09:16:00,59.6,46.5,29.92,WNW,293,1.3,1.8,62,0.00,,,0.00,WUHU216HW,2013-08-05 15:16:00,
2013-08-05 09:27:00,59.8,46.7,29.92,ESE,113,0.4,1.1,62,0.00,,,0.00,WUHU216HW,2013-08-05 15:27:00,
2013-08-05 09:37:00,60.1,47.5,29.90,South,180,3.6,3.6,63,0.00,,,0.00,WUHU216HW,2013-08-05 15:37:00,
2013-08-05 09:47:00,60.8,48.3,29.91,NW,315,5.4,6.3,63,0.00,,,0.00,WUHU216HW,2013-08-05 15:47:00,
2013-08-05 09:57:00,60.7,48.1,29.91,North,0,4.3,5.1,63,0.00,,,0.00,WUHU216HW,2013-08-05 15:57:00,
2013-08-05 10:07:00,60.7,48.1,29.90,ENE,68,5.4,5.4,63,0.00,,,0.00,WUHU216HW,2013-08-05 16:07:00,
2013-08-05 10:18:00,61.2,48.2,29.90,North,0,1.8,4.3,62,0.00,,,0.00,WUHU216HW,2013-08-05 16:18:00,
2013-08-05 10:28:00,62.3,48.7,29.89,North,0,0.2,2.0,61,0.00,,,0.00,WUHU216HW,2013-08-05 16:28:00,
2013-08-05 10:38:00,62.8,48.2,29.91,WNW,293,4.0,4.0,59,0.00,,,0.00,WUHU216HW,2013-08-05 16:38:00,
2013-08-05 10:48:00,63.0,49.0,29.89,SSE,158,0.7,4.0,60,0.00,,,0.00,WUHU216HW,2013-08-05 16:48:00,
2013-08-05 10:57:00,63.7,49.1,29.90,East,90,0.4,0.9,59,0.00,,,0.00,WUHU216HW,2013-08-05 16:57:00,
2013-08-05 11:08:00,64.8,49.6,29.89,SSW,203,0.4,3.1,58,0.00,,,0.00,WUHU216HW,2013-08-05 17:08:00,
2013-08-05 11:18:00,66.1,49.4,29.89,South,180,0.2,1.6,55,0.00,,,0.00,WUHU216HW,2013-08-05 17:18:00,
2013-08-05 11:28:00,67.7,49.0,29.88,NNE,23,2.0,3.1,51,0.00,,,0.00,WUHU216HW,2013-08-05 17:28:00,
2013-08-05 11:38:00,68.9,49.0,29.88,North,0,1.6,1.6,49,0.00,,,0.00,WUHU216HW,2013-08-05 17:38:00,
2013-08-05 11:48:00,70.2,49.5,29.87,WSW,248,1.1,4.3,48,0.00,,,0.00,WUHU216HW,2013-08-05 17:48:00,
2013-08-05 11:58:00,71.3,50.5,29.87,ESE,113,2.5,2.9,48,0.00,,,0.00,WUHU216HW,2013-08-05 17:58:00,
2013-08-05 12:08:00,72.4,50.9,29.87,ENE,68,1.8,2.2,47,0.00,,,0.00,WUHU216HW,2013-08-05 18:08:00,
2013-08-05 12:19:00,73.1,50.9,29.87,NNE,23,1.8,3.6,46,0.00,,,0.00,WUHU216HW,2013-08-05 18:19:00,
2013-08-05 12:29:00,74.0,49.4,29.87,ESE,113,1.3,5.1,42,0.00,,,0.00,WUHU216HW,2013-08-05 18:29:00,
2013-08-05 12:39:00,75.2,51.8,29.87,NNE,23,1.3,2.2,44,0.00,,,0.00,WUHU216HW,2013-08-05 18:39:00,
2013-08-05 12:49:00,76.0,50.6,29.86,WNW,293,1.1,3.8,41,0.00,,,0.00,WUHU216HW,2013-08-05 18:49:00,
2013-08-05 12:59:00,77.2,51.8,29.87,NNE,23,0.4,5.4,41,0.00,,,0.00,WUHU216HW,2013-08-05 18:59:00,
2013-08-05 13:09:00,78.1,51.1,29.86,ENE,68,0.7,2.5,39,0.00,,,0.00,WUHU216HW,2013-08-05 19:09:00,
2013-08-05 13:19:00,78.7,49.3,29.85,WSW,248,1.6,2.5,36,0.00,,,0.00,WUHU216HW,2013-08-05 19:19:00,
2013-08-05 13:29:00,79.2,49.1,29.85,NNE,23,4.7,4.7,35,0.00,,,0.00,WUHU216HW,2013-08-05 19:29:00,
2013-08-05 13:39:00,79.7,50.3,29.85,NNW,338,2.5,6.0,36,0.00,,,0.00,WUHU216HW,2013-08-05 19:39:00,
2013-08-05 13:49:00,79.7,48.0,29.84,North,0,2.7,6.3,33,0.00,,,0.00,WUHU216HW,2013-08-05 19:49:00,
2013-08-05 13:59:00,79.9,48.2,29.84,NNE,23,2.9,6.3,33,0.00,,,0.00,WUHU216HW,2013-08-05 19:59:00,
2013-08-05 14:09:00,80.1,48.2,29.84,NW,315,3.8,8.5,33,0.00,,,0.00,WUHU216HW,2013-08-05 20:09:00,
2013-08-05 14:19:00,80.1,48.2,29.83,NNE,23,3.6,8.1,33,0.00,,,0.00,WUHU216HW,2013-08-05 20:19:00,
2013-08-05 14:29:00,80.5,48.6,29.83,North,0,5.6,7.2,33,0.00,,,0.00,WUHU216HW,2013-08-05 20:29:00,
2013-08-05 14:39:00,80.3,47.7,29.82,NE,45,3.4,6.3,32,0.00,,,0.00,WUHU216HW,2013-08-05 20:39:00,
2013-08-05 14:49:00,80.5,49.4,29.82,ENE,68,4.7,4.7,34,0.00,,,0.00,WUHU216HW,2013-08-05 20:49:00,
2013-08-05 15:00:00,81.4,51.0,29.81,East,90,0.9,3.8,35,0.00,,,0.00,WUHU216HW,2013-08-05 21:00:00,
2013-08-05 15:10:00,82.1,48.4,29.81,ENE,68,3.1,6.5,31,0.00,,,0.00,WUHU216HW,2013-08-05 21:10:00,
2013-08-05 15:20:00,82.4,47.9,29.80,NNE,23,3.8,6.0,30,0.00,,,0.00,WUHU216HW,2013-08-05 21:20:00,
2013-08-05 15:30:00,82.6,48.9,29.80,NNE,23,4.7,6.7,31,0.00,,,0.00,WUHU216HW,2013-08-05 21:30:00,
2013-08-05 15:40:00,83.2,49.3,29.80,NNW,338,1.1,5.4,31,0.00,,,0.00,WUHU216HW,2013-08-05 21:40:00,
2013-08-05 15:50:00,83.5,46.7,29.79,NW,315,3.1,8.7,28,0.00,,,0.00,WUHU216HW,2013-08-05 21:50:00,
2013-08-05 16:01:00,84.6,44.5,29.79,SSW,203,1.6,10.3,25,0.00,,,0.00,WUHU216HW,2013-08-05 22:01:00,
2013-08-05 16:11:00,85.5,45.3,29.79,West,270,2.5,10.1,25,0.00,,,0.00,WUHU216HW,2013-08-05 22:11:00,
2013-08-05 16:21:00,85.7,44.4,29.78,SW,225,7.6,11.2,24,0.00,,,0.00,WUHU216HW,2013-08-05 22:21:00,
2013-08-05 16:31:00,85.7,43.3,29.78,WNW,293,9.2,16.6,23,0.00,,,0.00,WUHU216HW,2013-08-05 22:31:00,
2013-08-05 16:41:00,85.7,43.3,29.78,West,270,8.5,9.8,23,0.00,,,0.00,WUHU216HW,2013-08-05 22:41:00,
2013-08-05 16:51:00,85.7,42.2,29.78,WSW,248,6.9,10.5,22,0.00,,,0.00,WUHU216HW,2013-08-05 22:51:00,
2013-08-05 17:01:00,85.9,42.3,29.78,SW,225,6.7,18.3,22,0.00,,,0.00,WUHU216HW,2013-08-05 23:01:00,
2013-08-05 17:12:00,85.3,45.1,29.78,North,0,6.0,8.5,25,0.00,,,0.00,WUHU216HW,2013-08-05 23:12:00,
2013-08-05 17:22:00,84.2,45.3,29.78,North,0,1.1,8.3,26,0.00,,,0.00,WUHU216HW,2013-08-05 23:22:00,
2013-08-05 17:32:00,84.1,45.1,29.78,North,0,2.7,6.5,26,0.00,,,0.00,WUHU216HW,2013-08-05 23:32:00,
2013-08-05 17:42:00,84.4,41.1,29.78,West,270,7.4,13.0,22,0.00,,,0.00,WUHU216HW,2013-08-05 23:42:00,
2013-08-05 17:52:00,84.8,41.5,29.78,West,270,11.9,11.9,22,0.00,,,0.00,WUHU216HW,2013-08-05 23:52:00,
2013-08-05 18:02:00,85.0,37.7,29.78,WNW,293,12.1,13.6,19,0.00,,,0.00,WUHU216HW,2013-08-06 00:02:00,
2013-08-05 18:12:00,84.6,40.2,29.78,WNW,293,6.0,16.8,21,0.00,,,0.00,WUHU216HW,2013-08-06 00:12:00,
2013-08-05 18:23:00,84.6,40.2,29.78,West,270,7.8,12.5,21,0.00,,,0.00,WUHU216HW,2013-08-06 00:23:00,
2013-08-05 18:33:00,84.6,40.2,29.78,WNW,293,6.3,11.0,21,0.00,,,0.00,WUHU216HW,2013-08-06 00:33:00,
2013-08-05 18:43:00,84.4,40.1,29.79,ENE,68,4.9,10.7,21,0.00,,,0.00,WUHU216HW,2013-08-06 00:43:00,
2013-08-05 18:54:00,83.5,43.6,29.79,ENE,68,1.1,8.9,25,0.00,,,0.00,WUHU216HW,2013-08-06 00:54:00,
2013-08-05 19:04:00,82.8,44.0,29.79,NNW,338,4.7,6.5,26,0.00,,,0.00,WUHU216HW,2013-08-06 01:04:00,
2013-08-05 19:14:00,82.8,45.1,29.79,WNW,293,2.5,3.8,27,0.00,,,0.00,WUHU216HW,2013-08-06 01:14:00,
2013-08-05 19:24:00,82.6,41.8,29.79,WNW,293,8.5,9.2,24,0.00,,,0.00,WUHU216HW,2013-08-06 01:24:00,
2013-08-05 19:34:00,82.4,41.6,29.78,WNW,293,6.0,9.2,24,0.00,,,0.00,WUHU216HW,2013-08-06 01:34:00,
2013-08-05 19:44:00,81.9,42.2,29.79,NNW,338,4.3,7.4,25,0.00,,,0.00,WUHU216HW,2013-08-06 01:44:00,
2013-08-05 19:54:00,81.4,42.8,29.79,North,0,2.2,4.0,26,0.00,,,0.00,WUHU216HW,2013-08-06 01:54:00,
2013-08-05 20:04:00,80.8,45.5,29.80,NW,315,1.6,2.5,29,0.00,,,0.00,WUHU216HW,2013-08-06 02:04:00,
2013-08-05 20:14:00,80.1,44.9,29.80,WNW,293,6.3,8.1,29,0.00,,,0.00,WUHU216HW,2013-08-06 02:14:00,
2013-08-05 20:24:00,79.0,45.0,29.80,WNW,293,1.8,4.0,30,0.00,,,0.00,WUHU216HW,2013-08-06 02:24:00,
2013-08-05 20:34:00,78.7,45.5,29.80,SW,225,1.1,1.3,31,0.00,,,0.00,WUHU216HW,2013-08-06 02:34:00,
2013-08-05 20:44:00,77.8,45.5,29.80,WSW,248,2.0,3.1,32,0.00,,,0.00,WUHU216HW,2013-08-06 02:44:00,
2013-08-05 20:54:00,77.0,45.6,29.80,SW,225,1.8,2.5,33,0.00,,,0.00,WUHU216HW,2013-08-06 02:54:00,
2013-08-05 21:05:00,76.3,45.0,29.80,WSW,248,3.1,3.4,33,0.00,,,0.00,WUHU216HW,2013-08-06 03:05:00,
2013-08-05 21:15:00,75.8,45.3,29.81,South,180,2.9,3.1,34,0.00,,,0.00,WUHU216HW,2013-08-06 03:15:00,
2013-08-05 21:25:00,75.1,44.7,29.81,SW,225,3.1,3.4,34,0.00,,,0.00,WUHU216HW,2013-08-06 03:25:00,
2013-08-05 21:35:00,74.3,44.7,29.82,West,270,0.9,4.3,35,0.00,,,0.00,WUHU216HW,2013-08-06 03:35:00,
2013-08-05 21:45:00,73.6,45.6,29.83,NE,45,4.0,4.0,37,0.00,,,0.00,WUHU216HW,2013-08-06 03:45:00,
2013-08-05 21:55:00,73.3,46.0,29.83,NE,45,2.5,7.4,38,0.00,,,0.00,WUHU216HW,2013-08-06 03:55:00,
2013-08-05 22:05:00,73.1,46.6,29.84,North,0,0.9,4.0,39,0.00,,,0.00,WUHU216HW,2013-08-06 04:05:00,
2013-08-05 22:15:00,72.7,46.3,29.84,NE,45,1.8,1.8,39,0.00,,,0.00,WUHU216HW,2013-08-06 04:15:00,
2013-08-05 22:25:00,72.2,46.5,29.84,East,90,3.1,3.1,40,0.00,,,0.00,WUHU216HW,2013-08-06 04:25:00,
2013-08-05 22:35:00,71.6,46.7,29.84,North,0,2.0,3.1,41,0.00,,,0.00,WUHU216HW,2013-08-06 04:35:00,
2013-08-05 22:45:00,71.3,46.4,29.84,NE,45,1.1,2.2,41,0.00,,,0.00,WUHU216HW,2013-08-06 04:45:00,
2013-08-05 22:55:00,71.1,46.2,29.84,North,0,0.4,3.4,41,0.00,,,0.00,WUHU216HW,2013-08-06 04:55:00,
2013-08-05 23:05:00,70.9,46.0,29.84,NE,45,1.8,1.8,41,0.00,,,0.00,WUHU216HW,2013-08-06 05:05:00,
2013-08-05 23:15:00,70.6,45.7,29.84,ENE,68,0.9,2.0,41,0.00,,,0.00,WUHU216HW,2013-08-06 05:15:00,
2013-08-05 23:25:00,70.0,45.8,29.84,SW,225,0.0,2.9,42,0.00,,,0.00,WUHU216HW,2013-08-06 05:25:00,
2013-08-05 23:35:00,69.5,45.4,29.84,ENE,68,0.4,2.5,42,0.00,,,0.00,WUHU216HW,2013-08-06 05:35:00,
2013-08-05 23:45:00,69.1,45.0,29.84,ENE,68,3.1,3.1,42,0.00,,,0.00,WUHU216HW,2013-08-06 05:45:00,
2013-08-05 23:55:00,68.8,45.3,29.85,North,0,1.8,4.0,43,0.00,,,0.00,WUHU216HW,2013-08-06 05:55:00,